Time;durP1;ratioP1;P1;durP2;ratioP2;P2;SDS_P1;SDS_P2;PMS_P1;PMS_P2;Temp;Humidity;BMP_temperature;BMP_pressure;BME280_temperature;BME280_humidity;BME280_pressure;Samples;Min_cycle;Max_cycle;Signal;HPM_P1;HPM_P2
2022/06/29 00:01:22;;;;;;;2.90;1.55;;;20.80;94.50;;;;;;4127585;28;20038;-70
2022/06/29 00:03:23;;;;;;;3.20;1.90;;;20.80;94.80;;;;;;4128525;28;20060;-70
2022/06/29 00:05:25;;;;;;;2.92;1.58;;;20.80;94.80;;;;;;4126122;28;20042;-71
2022/06/29 00:07:26;;;;;;;4.28;1.75;;;20.80;95.30;;;;;;4130737;28;21645;-70
2022/06/29 00:09:26;;;;;;;3.85;1.50;;;20.70;94.80;;;;;;4131134;28;20497;-70
2022/06/29 00:11:27;;;;;;;2.70;1.30;;;20.80;95.10;;;;;;4119796;28;20066;-70
2022/06/29 00:13:27;;;;;;;2.40;1.40;;;20.80;95.00;;;;;;4131767;28;20027;-70
2022/06/29 00:15:28;;;;;;;2.60;1.60;;;20.70;94.90;;;;;;4128137;28;20450;-71
2022/06/29 00:17:31;;;;;;;5.38;1.67;;;20.70;95.00;;;;;;4130907;28;20041;-70
2022/06/29 00:19:31;;;;;;;2.10;1.20;;;20.70;94.70;;;;;;4130793;28;20026;-70
2022/06/29 00:21:33;;;;;;;6.03;1.70;;;20.70;94.60;;;;;;4129975;28;20045;-70
2022/06/29 00:23:34;;;;;;;1.80;1.40;;;20.70;94.70;;;;;;4130069;28;20469;-70
2022/06/29 00:25:34;;;;;;;2.83;1.40;;;20.70;94.50;;;;;;4129732;28;20039;-70
2022/06/29 00:27:36;;;;;;;3.35;2.15;;;20.70;94.70;;;;;;4145738;28;20048;-70
2022/06/29 00:29:37;;;;;;;3.65;1.55;;;20.70;94.90;;;;;;4129850;28;20034;-70
2022/06/29 00:31:37;;;;;;;3.20;1.58;;;20.60;94.60;;;;;;4129815;28;20053;-70
2022/06/29 00:33:38;;;;;;;3.95;1.42;;;20.60;94.70;;;;;;4130845;28;20034;-70
2022/06/29 00:35:39;;;;;;;2.90;1.60;;;20.60;94.90;;;;;;4127534;28;20509;-70
2022/06/29 00:37:39;;;;;;;4.95;1.60;;;20.60;95.00;;;;;;4130998;28;20066;-70
2022/06/29 00:39:40;;;;;;;3.00;1.70;;;20.60;94.90;;;;;;4131057;28;20092;-70
2022/06/29 00:41:43;;;;;;;1.83;1.23;;;20.60;94.90;;;;;;4129990;28;20375;-70
2022/06/29 00:43:44;;;;;;;1.77;1.20;;;20.60;95.20;;;;;;4131112;28;20046;-70
2022/06/29 00:45:44;;;;;;;3.50;1.75;;;20.60;95.20;;;;;;4129453;28;20453;-70
2022/06/29 00:47:45;;;;;;;2.67;1.38;;;20.50;95.30;;;;;;4130704;28;20478;-70
2022/06/29 00:49:46;;;;;;;1.95;1.35;;;20.50;95.50;;;;;;4129737;28;20043;-70
2022/06/29 00:51:49;;;;;;;2.30;1.42;;;20.50;95.20;;;;;;4128296;28;20022;-70
2022/06/29 00:53:52;;;;;;;3.10;1.65;;;20.50;95.40;;;;;;4129240;28;21051;-70
2022/06/29 00:55:57;;;;;;;3.20;1.33;;;20.50;95.80;;;;;;4129104;28;20039;-70
2022/06/29 00:58:05;;;;;;;4.25;1.45;;;20.50;96.50;;;;;;4130638;28;20087;-70
2022/06/29 01:00:06;;;;;;;2.75;1.42;;;20.40;96.30;;;;;;4130123;28;20405;-71
2022/06/29 01:02:07;;;;;;;1.80;1.10;;;20.40;95.70;;;;;;4129834;28;20056;-69
2022/06/29 01:04:08;;;;;;;3.80;1.88;;;20.40;95.60;;;;;;4129849;28;20125;-69
2022/06/29 01:06:08;;;;;;;2.10;1.45;;;20.40;96.40;;;;;;4128181;28;20489;-70
2022/06/29 01:08:11;;;;;;;2.33;1.30;;;20.30;96.20;;;;;;4130523;28;20049;-70
2022/06/29 01:10:12;;;;;;;2.55;1.38;;;20.30;95.70;;;;;;4129728;28;20034;-71
2022/06/29 01:12:13;;;;;;;3.05;1.35;;;20.30;95.70;;;;;;4130346;28;20041;-70
2022/06/29 01:14:15;;;;;;;2.92;1.20;;;20.30;96.00;;;;;;4129959;28;20035;-70
2022/06/29 01:16:15;;;;;;;3.42;1.33;;;20.20;96.50;;;;;;4128413;28;20042;-70
2022/06/29 01:18:16;;;;;;;2.38;1.35;;;20.20;96.20;;;;;;4128478;28;20034;-70
2022/06/29 01:20:18;;;;;;;1.80;1.40;;;20.20;95.70;;;;;;4129192;28;20031;-70
2022/06/29 01:22:23;;;;;;;4.20;1.80;;;20.20;95.30;;;;;;4130000;28;20054;-70
2022/06/29 01:24:24;;;;;;;2.42;1.60;;;20.20;95.50;;;;;;4128478;28;20042;-70
2022/06/29 01:26:24;;;;;;;2.05;1.27;;;20.20;95.60;;;;;;4128463;28;20057;-70
2022/06/29 01:28:25;;;;;;;2.05;1.40;;;20.10;95.50;;;;;;4130201;28;20023;-70
2022/06/29 01:30:26;;;;;;;3.38;1.70;;;20.10;96.10;;;;;;4129395;28;20073;-71
2022/06/29 01:32:26;;;;;;;3.05;1.65;;;20.10;96.80;;;;;;4130164;28;20111;-70
2022/06/29 01:34:28;;;;;;;3.47;1.58;;;20.10;96.80;;;;;;4129282;28;20053;-70
2022/06/29 01:36:29;;;;;;;2.30;1.42;;;20.10;97.20;;;;;;4129492;28;20529;-70
2022/06/29 01:38:29;;;;;;;2.00;1.25;;;20.10;97.70;;;;;;4129953;28;20102;-70
2022/06/29 01:40:30;;;;;;;5.68;1.67;;;20.10;97.70;;;;;;4128934;28;20722;-69
2022/06/29 01:42:31;;;;;;;2.38;1.33;;;20.10;97.90;;;;;;4128985;28;20097;-70
2022/06/29 01:44:32;;;;;;;2.22;1.08;;;20.00;97.90;;;;;;4126797;28;20042;-69
2022/06/29 01:46:32;;;;;;;1.70;1.23;;;20.00;97.00;;;;;;4112952;28;20042;-70
2022/06/29 01:48:33;;;;;;;5.15;1.48;;;20.00;97.20;;;;;;4119521;28;20038;-70
2022/06/29 01:50:34;;;;;;;3.20;1.17;;;19.90;97.10;;;;;;4128672;28;20470;-70
2022/06/29 01:52:34;;;;;;;2.80;1.40;;;19.90;98.30;;;;;;4129069;28;20034;-70
2022/06/29 01:54:35;;;;;;;2.70;1.15;;;19.90;97.30;;;;;;4126661;28;20038;-70
2022/06/29 01:56:35;;;;;;;2.47;1.30;;;19.80;97.20;;;;;;4129156;28;20124;-69
2022/06/29 01:58:36;;;;;;;2.78;1.33;;;19.80;98.90;;;;;;4129690;28;20030;-70
2022/06/29 02:00:36;;;;;;;3.25;1.30;;;19.80;98.50;;;;;;4128894;28;20080;-70
2022/06/29 02:02:37;;;;;;;4.68;1.38;;;19.80;97.90;;;;;;4129562;28;20031;-69
2022/06/29 02:04:38;;;;;;;3.55;1.80;;;19.80;97.90;;;;;;4129358;28;20035;-70
2022/06/29 02:06:38;;;;;;;2.17;1.63;;;19.80;98.50;;;;;;4129138;28;20042;-70
2022/06/29 02:08:39;;;;;;;2.47;1.50;;;19.70;98.40;;;;;;4128514;28;20397;-70
2022/06/29 02:10:39;;;;;;;4.30;1.17;;;19.80;98.30;;;;;;4128898;28;20053;-69
2022/06/29 02:12:40;;;;;;;2.03;1.35;;;19.70;98.80;;;;;;4129832;28;20093;-69
2022/06/29 02:14:40;;;;;;;2.90;1.27;;;19.70;98.80;;;;;;4126758;28;20493;-70
2022/06/29 02:16:41;;;;;;;4.25;1.70;;;19.70;98.40;;;;;;4129105;28;20449;-70
2022/06/29 02:18:42;;;;;;;2.38;1.40;;;19.70;98.60;;;;;;4129331;28;20096;-70
2022/06/29 02:20:43;;;;;;;3.83;1.35;;;19.70;99.20;;;;;;4128780;28;20132;-70
2022/06/29 02:22:43;;;;;;;3.85;1.60;;;19.70;99.00;;;;;;4129725;28;20038;-70
2022/06/29 02:24:44;;;;;;;4.30;1.80;;;19.60;99.30;;;;;;4128927;28;20053;-69
2022/06/29 02:26:45;;;;;;;3.08;1.58;;;19.60;99.30;;;;;;4128796;28;20045;-69
2022/06/29 02:28:45;;;;;;;3.63;1.40;;;19.60;99.90;;;;;;4129501;28;20089;-70
2022/06/29 02:35:25;;;;;;;3.42;1.40;;;19.50;99.90;;;;;;4123911;28;20042;-71
2022/06/29 02:37:25;;;;;;;6.00;1.63;;;19.50;99.90;;;;;;4129343;28;20037;-70
2022/06/29 02:39:26;;;;;;;5.97;1.60;;;19.50;99.90;;;;;;4129154;28;20478;-70
2022/06/29 02:41:27;;;;;;;3.10;1.20;;;19.50;99.90;;;;;;4127544;28;20390;-70
2022/06/29 02:43:28;;;;;;;4.85;1.50;;;19.40;99.90;;;;;;4129049;28;20062;-70
2022/06/29 02:45:28;;;;;;;3.47;1.50;;;19.40;99.90;;;;;;4126612;28;20034;-70
2022/06/29 02:47:29;;;;;;;3.15;1.67;;;19.40;99.90;;;;;;4129310;28;20060;-70
2022/06/29 02:49:29;;;;;;;3.38;1.40;;;19.40;99.90;;;;;;4128893;28;20172;-70
2022/06/29 02:51:30;;;;;;;3.22;1.25;;;19.40;99.90;;;;;;4127720;28;20031;-70
2022/06/29 02:53:30;;;;;;;3.65;1.20;;;19.40;99.90;;;;;;4128625;28;20046;-69
2022/06/29 02:55:31;;;;;;;4.22;1.75;;;19.40;99.90;;;;;;4127376;28;20137;-69
2022/06/29 02:57:32;;;;;;;4.40;1.30;;;19.30;99.90;;;;;;4128805;28;20030;-70
2022/06/29 02:59:32;;;;;;;2.92;1.25;;;19.30;99.90;;;;;;4128893;28;20117;-69
2022/06/29 03:01:33;;;;;;;3.67;1.50;;;19.30;99.90;;;;;;4126917;28;20038;-69
2022/06/29 03:03:33;;;;;;;2.17;1.23;;;19.30;99.90;;;;;;4129014;28;20482;-70
2022/06/29 03:05:34;;;;;;;3.17;1.25;;;19.20;99.90;;;;;;4127296;28;20095;-69
2022/06/29 03:07:35;;;;;;;2.28;1.25;;;19.10;99.90;;;;;;4128518;28;20034;-70
2022/06/29 03:09:35;;;;;;;4.00;1.50;;;19.10;99.90;;;;;;4129175;28;20493;-70
2022/06/29 03:11:36;;;;;;;3.20;1.45;;;19.10;99.90;;;;;;4127826;28;20477;-69
2022/06/29 03:13:37;;;;;;;3.85;1.63;;;19.10;99.90;;;;;;4128633;28;20490;-69
2022/06/29 03:15:38;;;;;;;6.18;1.35;;;19.00;99.90;;;;;;4127137;28;20034;-69
2022/06/29 03:17:38;;;;;;;4.05;1.77;;;19.00;99.90;;;;;;4128877;28;20482;-70
2022/06/29 03:19:39;;;;;;;4.18;1.42;;;19.00;99.90;;;;;;4129120;28;20402;-69
2022/06/29 03:21:39;;;;;;;2.30;1.58;;;19.00;99.90;;;;;;4127681;28;20039;-69
2022/06/29 03:23:40;;;;;;;4.03;1.50;;;18.90;99.90;;;;;;4128787;28;20030;-69
2022/06/29 03:25:41;;;;;;;4.35;1.63;;;18.90;99.90;;;;;;4125169;28;20084;-69
2022/06/29 03:27:42;;;;;;;4.03;1.60;;;18.90;99.90;;;;;;4129140;28;20027;-69
2022/06/29 03:29:43;;;;;;;5.85;1.50;;;18.90;99.90;;;;;;4129073;28;20042;-69
2022/06/29 03:31:44;;;;;;;5.93;1.58;;;18.90;99.90;;;;;;4128044;28;20034;-69
2022/06/29 03:33:44;;;;;;;4.50;1.50;;;18.90;99.90;;;;;;4128004;28;20521;-69
2022/06/29 03:35:45;;;;;;;7.03;1.30;;;18.90;99.90;;;;;;4126910;28;20118;-70
2022/06/29 03:37:45;;;;;;;4.70;1.20;;;18.80;99.90;;;;;;4128997;28;20041;-69
2022/06/29 03:39:46;;;;;;;6.45;1.60;;;18.80;99.90;;;;;;4128828;28;20026;-70
2022/06/29 03:41:46;;;;;;;3.67;1.08;;;18.80;99.90;;;;;;4129327;28;20069;-70
2022/06/29 03:43:47;;;;;;;4.13;1.55;;;18.80;99.90;;;;;;4131577;28;20133;-70
2022/06/29 03:45:48;;;;;;;2.97;1.40;;;18.70;99.90;;;;;;4128177;28;20114;-70
2022/06/29 03:47:49;;;;;;;5.30;1.60;;;18.70;99.90;;;;;;4132053;28;20038;-69
2022/06/29 03:49:50;;;;;;;2.60;1.50;;;18.70;99.90;;;;;;4131979;28;20035;-69
2022/06/29 03:51:50;;;;;;;3.50;1.40;;;18.70;99.90;;;;;;4130496;28;20537;-70
2022/06/29 03:53:51;;;;;;;5.35;1.45;;;18.70;99.90;;;;;;4131487;28;20050;-70
2022/06/29 03:55:52;;;;;;;7.03;1.73;;;18.70;99.90;;;;;;4128800;28;20042;-70
2022/06/29 03:57:52;;;;;;;2.40;1.30;;;18.70;99.90;;;;;;4132015;28;20039;-70
2022/06/29 03:59:53;;;;;;;2.90;1.45;;;18.70;99.90;;;;;;4131019;28;20041;-69
2022/06/29 04:01:54;;;;;;;3.85;1.48;;;18.70;99.90;;;;;;4129873;28;20486;-70
2022/06/29 04:03:55;;;;;;;6.00;1.60;;;18.70;99.90;;;;;;4131009;28;20027;-70
2022/06/29 04:05:56;;;;;;;3.97;1.90;;;18.70;99.90;;;;;;4126348;28;20043;-70
2022/06/29 04:07:56;;;;;;;3.20;1.40;;;18.70;99.90;;;;;;4124804;28;20033;-70
2022/06/29 04:09:59;;;;;;;3.75;1.52;;;18.60;99.90;;;;;;4141081;28;20030;-70
2022/06/29 04:12:00;;;;;;;3.20;1.20;;;18.60;99.90;;;;;;4129041;28;20029;-70
2022/06/29 04:14:00;;;;;;;4.88;1.90;;;18.60;99.90;;;;;;4131130;28;20493;-69
2022/06/29 04:16:01;;;;;;;2.67;1.42;;;18.70;99.90;;;;;;4128851;28;20062;-69
2022/06/29 04:18:02;;;;;;;3.05;1.70;;;18.60;99.90;;;;;;4131545;28;20089;-69
2022/06/29 04:20:04;;;;;;;6.95;1.63;;;18.60;99.90;;;;;;4130692;28;20046;-70
2022/06/29 04:22:05;;;;;;;3.40;1.53;;;18.60;99.90;;;;;;4128373;28;20397;-70
2022/06/29 04:24:06;;;;;;;2.17;1.50;;;18.60;99.90;;;;;;4129863;28;20026;-70
2022/06/29 04:26:07;;;;;;;2.55;1.60;;;18.60;99.90;;;;;;4128949;28;20036;-69
2022/06/29 04:28:07;;;;;;;6.38;1.90;;;18.60;99.90;;;;;;4130795;28;20054;-70
2022/06/29 04:30:08;;;;;;;4.63;1.70;;;18.60;99.90;;;;;;4129377;28;20037;-69
2022/06/29 04:32:10;;;;;;;3.97;1.88;;;18.60;99.90;;;;;;4130240;28;20196;-69
2022/06/29 04:34:10;;;;;;;5.85;1.60;;;18.60;99.90;;;;;;4130895;28;20034;-70
2022/06/29 04:36:11;;;;;;;2.78;1.63;;;18.60;99.90;;;;;;4130195;28;20045;-70
2022/06/29 04:38:12;;;;;;;7.35;1.73;;;18.60;99.90;;;;;;4131191;28;20046;-69
2022/06/29 04:40:13;;;;;;;3.05;1.40;;;18.60;99.90;;;;;;4136017;28;20031;-70
2022/06/29 04:42:13;;;;;;;3.65;1.65;;;18.60;99.90;;;;;;4130372;28;20049;-69
2022/06/29 04:44:15;;;;;;;2.63;1.50;;;18.60;99.90;;;;;;4128844;28;20043;-70
2022/06/29 04:46:24;;;;;;;5.40;1.70;;;18.60;99.90;;;;;;4129852;28;20039;-69
2022/06/29 04:48:25;;;;;;;4.20;1.63;;;18.60;99.90;;;;;;4131058;28;20034;-70
2022/06/29 04:50:26;;;;;;;7.78;2.08;;;18.60;99.90;;;;;;4129830;28;20034;-70
2022/06/29 04:52:27;;;;;;;3.45;1.90;;;18.60;99.90;;;;;;4128739;28;20549;-70
2022/06/29 04:54:27;;;;;;;2.78;1.73;;;18.60;99.90;;;;;;4127697;28;20043;-69
2022/06/29 04:56:31;;;;;;;2.80;1.60;;;18.60;99.90;;;;;;4129121;28;20034;-70
2022/06/29 04:58:31;;;;;;;2.67;1.65;;;18.70;99.90;;;;;;4130495;28;20561;-69
2022/06/29 05:00:32;;;;;;;6.97;2.08;;;18.70;99.90;;;;;;4121750;28;20019;-69
2022/06/29 05:02:32;;;;;;;3.15;1.75;;;18.70;99.90;;;;;;4125410;28;20046;-70
2022/06/29 05:04:33;;;;;;;4.05;1.77;;;18.70;99.90;;;;;;4126041;28;20062;-69
2022/06/29 05:06:33;;;;;;;5.78;2.10;;;18.80;99.90;;;;;;4120861;28;20030;-70
2022/06/29 05:08:34;;;;;;;4.35;1.80;;;18.80;99.90;;;;;;4123333;28;20031;-69
2022/06/29 05:10:34;;;;;;;4.13;1.70;;;18.80;99.90;;;;;;4123621;28;20038;-70
2022/06/29 05:12:38;;;;;;;2.83;1.95;;;18.90;99.90;;;;;;4129490;28;20029;-70
2022/06/29 05:14:38;;;;;;;2.58;1.80;;;18.90;99.90;;;;;;4125425;28;20050;-69
2022/06/29 05:16:39;;;;;;;2.22;1.50;;;19.00;99.90;;;;;;4127658;28;20504;-69
2022/06/29 05:18:40;;;;;;;3.88;2.00;;;19.00;99.90;;;;;;4124590;28;20105;-70
2022/06/29 05:20:42;;;;;;;2.72;1.45;;;19.10;99.90;;;;;;4123907;28;20030;-69
2022/06/29 05:22:43;;;;;;;4.95;1.48;;;19.10;99.90;;;;;;4122951;28;20050;-70
2022/06/29 05:24:43;;;;;;;3.88;1.95;;;19.10;99.90;;;;;;4113127;28;20049;-70
2022/06/29 05:26:44;;;;;;;5.00;2.05;;;19.20;99.90;;;;;;4120965;28;20084;-70
2022/06/29 05:28:45;;;;;;;3.15;1.90;;;19.20;99.90;;;;;;4119828;28;20042;-70
2022/06/29 05:30:45;;;;;;;4.63;2.13;;;19.20;99.90;;;;;;4119123;28;20035;-70
2022/06/29 05:32:46;;;;;;;4.25;2.28;;;19.20;99.90;;;;;;4119898;28;20041;-70
2022/06/29 05:34:46;;;;;;;4.93;2.47;;;19.20;99.90;;;;;;4135475;28;20489;-70
2022/06/29 05:36:47;;;;;;;4.13;2.08;;;19.20;99.90;;;;;;4129009;28;20034;-70
2022/06/29 05:38:47;;;;;;;5.13;2.90;;;19.20;99.90;;;;;;4127397;28;20031;-70
2022/06/29 05:40:48;;;;;;;5.85;2.85;;;19.10;99.90;;;;;;4125304;28;20022;-70
2022/06/29 05:42:49;;;;;;;4.50;2.65;;;19.20;99.90;;;;;;4127263;28;20036;-70
2022/06/29 05:44:49;;;;;;;5.28;2.58;;;19.30;99.90;;;;;;4125500;28;20077;-70
2022/06/29 05:46:50;;;;;;;3.72;2.40;;;19.40;99.90;;;;;;4116983;28;20039;-74
2022/06/29 05:48:51;;;;;;;6.03;2.15;;;19.50;99.90;;;;;;4128830;28;20405;-74
2022/06/29 05:50:51;;;;;;;5.32;3.05;;;19.70;99.90;;;;;;4134376;28;20042;-74
2022/06/29 05:52:52;;;;;;;3.65;2.30;;;19.80;99.90;;;;;;4128713;28;20034;-74
2022/06/29 05:54:53;;;;;;;4.28;2.70;;;20.00;99.90;;;;;;4130471;28;20054;-74
2022/06/29 05:56:53;;;;;;;8.18;2.90;;;20.00;99.90;;;;;;4132555;28;20073;-74
2022/06/29 05:58:54;;;;;;;5.00;2.72;;;20.10;99.90;;;;;;4134822;28;20446;-74
2022/06/29 06:00:55;;;;;;;7.05;3.13;;;20.20;99.90;;;;;;4134575;28;20470;-74
2022/06/29 06:02:55;;;;;;;5.75;2.60;;;20.30;99.90;;;;;;4135116;28;20109;-74
2022/06/29 06:04:56;;;;;;;3.75;2.15;;;20.60;99.90;;;;;;4131348;28;20041;-74
2022/06/29 06:06:57;;;;;;;5.80;2.92;;;20.80;99.90;;;;;;4128363;28;20053;-73
2022/06/29 06:08:57;;;;;;;4.15;2.40;;;21.10;99.90;;;;;;4131285;28;20042;-74
2022/06/29 06:10:58;;;;;;;3.65;2.22;;;21.30;99.90;;;;;;4130909;28;21101;-74
2022/06/29 06:12:58;;;;;;;7.00;2.92;;;21.50;99.90;;;;;;4122826;28;20038;-74
2022/06/29 06:15:01;;;;;;;4.78;2.65;;;21.60;99.90;;;;;;4125660;28;20053;-73
2022/06/29 06:17:01;;;;;;;4.30;2.33;;;21.80;99.90;;;;;;4124433;28;20125;-74
2022/06/29 06:19:02;;;;;;;4.28;2.20;;;22.00;99.90;;;;;;4121384;28;20033;-73
2022/06/29 06:21:03;;;;;;;5.75;2.60;;;22.20;99.90;;;;;;4123483;28;20057;-73
2022/06/29 06:23:03;;;;;;;4.18;2.10;;;22.40;99.90;;;;;;4124452;28;20093;-74
2022/06/29 06:25:04;;;;;;;4.85;2.40;;;22.60;99.90;;;;;;4122994;28;20042;-73
2022/06/29 06:27:05;;;;;;;4.18;2.10;;;22.80;99.90;;;;;;4122990;28;20042;-73
2022/06/29 06:29:05;;;;;;;5.90;2.15;;;23.00;99.90;;;;;;4120926;28;20512;-74
2022/06/29 06:31:07;;;;;;;4.10;2.05;;;23.20;98.50;;;;;;4121066;28;20046;-74
2022/06/29 06:33:08;;;;;;;3.22;1.80;;;23.40;98.50;;;;;;4122100;28;20034;-74
2022/06/29 06:35:09;;;;;;;4.35;1.80;;;23.60;99.10;;;;;;4122977;28;20170;-77
2022/06/29 06:37:10;;;;;;;2.72;1.85;;;23.90;97.20;;;;;;4127991;28;20034;-74
2022/06/29 06:39:10;;;;;;;5.32;2.05;;;24.10;97.70;;;;;;4111565;28;20510;-74
2022/06/29 06:41:23;;;;;;;2.95;2.03;;;24.30;95.30;;;;;;4127971;28;20034;-74
2022/06/29 06:43:23;;;;;;;4.97;2.20;;;24.50;94.80;;;;;;4128155;28;20034;-75
2022/06/29 06:45:24;;;;;;;5.03;2.63;;;24.50;92.10;;;;;;4121437;28;20034;-75
2022/06/29 06:47:25;;;;;;;4.25;2.13;;;24.60;93.00;;;;;;4122994;28;20425;-75
2022/06/29 06:49:26;;;;;;;5.50;2.70;;;24.60;90.50;;;;;;4122759;28;20142;-75
2022/06/29 06:51:26;;;;;;;4.70;2.33;;;24.70;91.60;;;;;;4123991;28;20075;-74
2022/06/29 06:53:27;;;;;;;5.07;2.95;;;24.70;91.50;;;;;;4128024;28;20425;-74
2022/06/29 06:55:28;;;;;;;7.20;3.30;;;24.80;91.80;;;;;;4123156;28;20088;-75
2022/06/29 06:57:29;;;;;;;4.70;2.97;;;24.80;92.00;;;;;;4118933;28;20160;-74
2022/06/29 06:59:29;;;;;;;5.03;2.78;;;24.90;91.20;;;;;;4123369;28;20474;-74
2022/06/29 07:01:30;;;;;;;6.05;2.97;;;25.00;90.40;;;;;;4123205;28;20065;-74
2022/06/29 07:03:31;;;;;;;5.35;2.90;;;25.00;90.00;;;;;;4120360;28;20039;-74
2022/06/29 07:05:31;;;;;;;5.43;2.92;;;25.10;90.60;;;;;;4125189;28;20026;-75
2022/06/29 07:07:32;;;;;;;5.97;3.30;;;25.20;89.80;;;;;;4121153;28;20026;-74
2022/06/29 07:09:33;;;;;;;4.57;2.50;;;25.20;89.00;;;;;;4120580;28;20042;-74
2022/06/29 07:11:33;;;;;;;5.93;2.50;;;25.20;88.00;;;;;;4116856;28;20031;-74
2022/06/29 07:13:35;;;;;;;6.82;3.17;;;25.30;89.90;;;;;;4118784;28;20038;-74
2022/06/29 07:15:35;;;;;;;3.80;2.65;;;25.30;88.80;;;;;;4123523;28;20038;-74
2022/06/29 07:17:36;;;;;;;4.93;2.85;;;25.40;90.40;;;;;;4123231;28;20031;-74
2022/06/29 07:19:36;;;;;;;5.18;3.00;;;25.40;88.80;;;;;;4123126;28;20043;-74
2022/06/29 07:21:37;;;;;;;4.32;2.35;;;25.40;89.50;;;;;;4136496;28;20030;-74
2022/06/29 07:23:37;;;;;;;4.28;2.22;;;25.40;90.10;;;;;;4124394;28;20034;-74
2022/06/29 07:25:38;;;;;;;4.85;1.92;;;25.40;89.70;;;;;;4127382;28;20110;-75
2022/06/29 07:27:39;;;;;;;3.60;1.90;;;25.40;87.60;;;;;;4128225;28;20026;-74
2022/06/29 07:29:40;;;;;;;4.60;1.40;;;25.30;88.10;;;;;;4122803;28;20049;-74
2022/06/29 07:31:41;;;;;;;2.92;1.38;;;25.40;88.00;;;;;;4123021;28;20397;-74
2022/06/29 07:33:41;;;;;;;2.80;1.48;;;25.40;88.60;;;;;;4121556;28;20419;-74
2022/06/29 07:35:42;;;;;;;2.33;1.35;;;25.40;86.50;;;;;;4124455;28;20038;-74
2022/06/29 07:37:42;;;;;;;6.22;1.77;;;25.40;85.20;;;;;;4124257;28;20524;-74
2022/06/29 07:39:43;;;;;;;2.10;1.33;;;25.40;86.20;;;;;;4122442;28;20038;-74
2022/06/29 07:41:44;;;;;;;2.30;1.20;;;25.30;83.70;;;;;;4124129;28;20031;-74
2022/06/29 07:43:44;;;;;;;3.25;1.45;;;25.10;80.90;;;;;;4123384;28;20038;-74
2022/06/29 07:45:45;;;;;;;4.65;1.60;;;25.10;81.60;;;;;;4126299;28;20474;-74
2022/06/29 07:47:45;;;;;;;3.45;1.40;;;24.90;81.60;;;;;;4125803;28;20524;-74
2022/06/29 07:49:46;;;;;;;2.70;1.35;;;24.80;81.70;;;;;;4122222;28;20549;-74
2022/06/29 07:51:47;;;;;;;5.50;1.20;;;24.70;81.60;;;;;;4103332;28;20047;-74
2022/06/29 07:53:48;;;;;;;2.03;1.20;;;24.70;82.70;;;;;;4124156;28;20481;-74
2022/06/29 07:55:48;;;;;;;6.40;1.48;;;24.70;83.60;;;;;;4123215;28;20129;-74
2022/06/29 07:57:50;;;;;;;3.22;1.13;;;24.70;83.70;;;;;;4127769;28;20042;-74
2022/06/29 07:59:50;;;;;;;5.63;1.60;;;24.70;83.50;;;;;;4122886;28;20092;-74
2022/06/29 08:01:51;;;;;;;3.03;1.40;;;24.70;82.90;;;;;;4122570;28;20185;-74
2022/06/29 08:03:53;;;;;;;2.63;1.02;;;24.70;82.80;;;;;;4123209;28;20041;-74
2022/06/29 08:05:54;;;;;;;3.30;1.20;;;24.70;83.10;;;;;;4125580;28;20042;-74
2022/06/29 08:07:54;;;;;;;3.13;1.38;;;24.70;83.80;;;;;;4125834;28;20432;-74
2022/06/29 08:09:55;;;;;;;2.33;1.20;;;24.70;84.20;;;;;;4120730;28;20046;-74
2022/06/29 08:11:55;;;;;;;4.55;1.38;;;24.70;85.00;;;;;;4124392;28;20058;-74
2022/06/29 08:13:56;;;;;;;2.40;1.30;;;24.60;84.50;;;;;;4123194;28;20039;-74
2022/06/29 08:15:56;;;;;;;3.10;1.48;;;24.50;84.40;;;;;;4125822;28;20043;-75
2022/06/29 08:17:58;;;;;;;3.85;1.55;;;24.50;86.00;;;;;;4124281;28;20027;-74
2022/06/29 08:19:58;;;;;;;3.70;1.48;;;24.50;85.90;;;;;;4113841;28;20122;-74
2022/06/29 08:21:59;;;;;;;2.55;1.13;;;24.50;85.60;;;;;;4135898;28;20038;-75
2022/06/29 08:24:00;;;;;;;2.72;1.65;;;24.50;87.00;;;;;;4147404;28;20062;-74
2022/06/29 08:26:00;;;;;;;3.97;1.55;;;24.50;86.30;;;;;;4128428;28;20034;-74
2022/06/29 08:28:01;;;;;;;2.30;1.23;;;24.50;85.90;;;;;;4130668;28;20113;-74
2022/06/29 08:30:02;;;;;;;5.10;1.83;;;24.50;86.80;;;;;;4125063;28;20149;-75
2022/06/29 08:32:04;;;;;;;2.42;1.20;;;24.40;87.50;;;;;;4124992;28;20038;-73
2022/06/29 08:34:07;;;;;;;2.20;1.10;;;24.40;87.90;;;;;;4122546;28;20371;-74
2022/06/29 08:36:07;;;;;;;3.88;1.50;;;24.40;87.50;;;;;;4126163;28;20038;-74
2022/06/29 08:38:08;;;;;;;4.15;1.20;;;24.40;87.60;;;;;;4126801;28;20069;-74
2022/06/29 08:40:11;;;;;;;4.43;1.50;;;24.50;88.20;;;;;;4120386;28;20037;-76
2022/06/29 08:42:13;;;;;;;3.03;1.42;;;24.40;87.40;;;;;;4121398;28;20088;-74
2022/06/29 08:44:15;;;;;;;2.77;1.43;;;24.40;87.60;;;;;;4120624;28;20518;-74
2022/06/29 08:46:15;;;;;;;2.23;1.20;;;24.40;88.60;;;;;;4126484;28;20043;-74
2022/06/29 08:48:16;;;;;;;2.20;1.30;;;24.40;87.60;;;;;;4124830;28;20066;-74
2022/06/29 08:50:17;;;;;;;2.13;1.40;;;24.40;87.20;;;;;;4121512;28;20066;-75
2022/06/29 08:52:18;;;;;;;1.98;1.40;;;24.50;88.70;;;;;;4123021;28;20042;-74
2022/06/29 08:54:21;;;;;;;3.00;1.30;;;24.50;89.30;;;;;;4123270;28;20084;-74
2022/06/29 08:56:22;;;;;;;1.92;1.13;;;24.50;90.50;;;;;;4118094;28;20046;-74
2022/06/29 08:58:25;;;;;;;2.60;1.25;;;24.50;88.50;;;;;;4125436;28;20481;-74
2022/06/29 09:00:25;;;;;;;2.00;1.20;;;24.60;89.70;;;;;;4121264;28;20043;-75
2022/06/29 09:02:26;;;;;;;3.28;1.30;;;24.60;89.80;;;;;;4122533;28;20027;-74
2022/06/29 09:04:27;;;;;;;3.25;1.20;;;24.60;89.20;;;;;;4126714;28;20030;-74
2022/06/29 09:06:27;;;;;;;1.15;0.98;;;24.60;90.20;;;;;;4128376;28;20034;-74
2022/06/29 09:08:30;;;;;;;1.40;1.10;;;24.70;91.60;;;;;;4126832;28;20027;-74
2022/06/29 09:10:31;;;;;;;2.65;1.20;;;24.70;92.70;;;;;;4122922;28;20043;-75
2022/06/29 09:12:32;;;;;;;2.70;1.20;;;24.70;92.70;;;;;;4121357;28;20175;-74
2022/06/29 09:14:33;;;;;;;4.93;1.60;;;24.70;92.40;;;;;;4121716;28;20046;-73
2022/06/29 09:16:49;;;;;;;15.50;1.90;;;24.80;91.30;;;;;;4127291;28;20030;-74
2022/06/29 09:18:50;;;;;;;2.30;1.40;;;24.70;91.10;;;;;;4135833;28;20113;-74
2022/06/29 09:21:00;;;;;;;1.75;1.33;;;24.80;92.80;;;;;;4121139;28;20097;-74
2022/06/29 09:23:01;;;;;;;2.20;1.40;;;24.80;92.30;;;;;;4122352;28;20410;-74
2022/06/29 09:25:02;;;;;;;1.27;1.08;;;24.80;91.00;;;;;;4121784;28;20349;-76
2022/06/29 09:27:05;;;;;;;1.73;1.20;;;24.80;91.60;;;;;;4123621;28;20050;-74
2022/06/29 09:29:26;;;;;;;2.33;1.50;;;24.90;92.20;;;;;;4123831;28;20031;-74
2022/06/29 09:31:26;;;;;;;3.08;1.35;;;24.90;90.30;;;;;;4122896;28;20129;-74
2022/06/29 09:33:32;;;;;;;5.53;1.48;;;24.90;89.70;;;;;;4123279;28;20050;-74
2022/06/29 09:35:34;;;;;;;2.35;1.60;;;24.80;88.60;;;;;;4125827;28;20046;-73
2022/06/29 09:37:35;;;;;;;1.63;1.10;;;24.80;88.40;;;;;;4122961;28;20031;-74
2022/06/29 09:39:50;;;;;;;6.18;1.58;;;24.80;89.00;;;;;;4123754;28;20081;-73
2022/06/29 09:41:58;;;;;;;2.28;1.50;;;24.90;91.40;;;;;;4127043;28;20453;-74
2022/06/29 09:43:58;;;;;;;3.38;2.10;;;24.90;90.20;;;;;;4123340;28;20043;-74
2022/06/29 09:46:02;;;;;;;3.60;1.50;;;24.70;89.30;;;;;;4124137;28;20411;-74
2022/06/29 09:48:03;;;;;;;3.55;1.73;;;24.70;90.80;;;;;;4121768;28;20121;-72
2022/06/29 09:50:08;;;;;;;2.90;1.70;;;24.70;90.60;;;;;;4129261;28;20034;-74
2022/06/29 09:52:10;;;;;;;6.22;1.80;;;24.70;90.50;;;;;;4128679;28;20038;-74
2022/06/29 09:54:12;;;;;;;3.17;1.58;;;24.70;91.20;;;;;;4136026;28;20038;-74
2022/06/29 09:56:17;;;;;;;4.35;1.85;;;24.80;91.10;;;;;;4128076;28;20078;-74
2022/06/29 09:58:24;;;;;;;2.45;1.48;;;24.70;91.10;;;;;;4122866;28;20046;-74
2022/06/29 10:02:45;;;;;;;4.63;2.10;;;24.80;90.60;;;;;;4112547;28;20031;-74
2022/06/29 10:04:46;;;;;;;4.90;1.90;;;24.60;90.50;;;;;;4124112;28;20418;-74
2022/06/29 10:06:49;;;;;;;2.20;1.65;;;24.60;90.60;;;;;;4127055;28;20037;-74
2022/06/29 10:08:50;;;;;;;3.67;1.83;;;24.60;90.80;;;;;;4119803;28;20038;-74
2022/06/29 10:10:58;;;;;;;2.70;1.45;;;24.60;91.20;;;;;;4144919;28;20030;-74
2022/06/29 10:15:30;;;;;;;2.78;1.52;;;24.50;90.70;;;;;;4128650;28;20050;-74
2022/06/29 10:17:52;;;;;;;2.38;1.55;;;24.50;90.00;;;;;;4127194;28;20046;-74
2022/06/29 10:20:23;;;;;;;2.65;1.77;;;24.40;89.50;;;;;;4138265;28;20040;-74
2022/06/29 10:22:26;;;;;;;4.22;1.90;;;24.40;90.30;;;;;;4141727;28;20046;-74
2022/06/29 10:24:28;;;;;;;2.90;1.60;;;24.40;90.40;;;;;;4137175;28;20035;-74
2022/06/29 10:26:35;;;;;;;4.43;1.95;;;24.50;90.50;;;;;;4127090;28;20505;-74
2022/06/29 10:28:36;;;;;;;3.88;1.98;;;24.50;90.70;;;;;;4126755;28;20042;-74
2022/06/29 10:30:38;;;;;;;5.72;2.72;;;24.50;90.10;;;;;;4135753;28;20498;-74
2022/06/29 10:32:38;;;;;;;2.97;1.50;;;24.50;90.90;;;;;;4129150;28;20122;-74
2022/06/29 10:35:22;;;;;;;3.13;2.35;;;24.50;91.00;;;;;;4129174;28;20027;-74
2022/06/29 10:37:10;;;;;;;4.57;2.30;;;24.60;90.50;;;;;;4121893;28;20093;-73
2022/06/29 10:39:11;;;;;;;3.58;2.05;;;24.60;89.70;;;;;;4130732;28;20031;-74
2022/06/29 10:43:07;;;;;;;2.47;1.42;;;24.50;89.90;;;;;;4144185;28;20084;-74
2022/06/29 10:43:36;;;;;;;5.38;1.92;;;24.60;90.80;;;;;;4145146;28;20091;-74